createdAt,value
2019-05-13T00:01:34.502Z,1.40
2019-05-13T00:04:06.886Z,1.22
2019-05-13T00:06:51.382Z,1.50
2019-05-13T00:09:14.117Z,1.15
2019-05-13T00:11:46.593Z,1.37
2019-05-13T00:14:19.025Z,1.10
2019-05-13T00:16:53.480Z,1.45
2019-05-13T00:19:25.895Z,1.10
2019-05-13T00:21:59.787Z,1.42
2019-05-13T00:24:33.972Z,1.67
2019-05-13T00:27:06.767Z,1.37
2019-05-13T00:29:39.277Z,1.40
2019-05-13T00:32:13.498Z,1.70
2019-05-13T00:34:46.147Z,1.20
2019-05-13T00:37:18.593Z,1.30
2019-05-13T00:39:51.047Z,1.20
2019-05-13T00:42:24.490Z,1.32
2019-05-13T00:44:57.258Z,1.22
2019-05-13T00:47:34.201Z,1.12
2019-05-13T00:50:07.251Z,1.22
2019-05-13T00:52:39.441Z,1.40
2019-05-13T00:55:15.300Z,1.30
2019-05-13T00:57:47.650Z,1.22
2019-05-13T01:00:20.622Z,1.27
2019-05-13T01:02:54.617Z,1.40
2019-05-13T01:05:33.878Z,1.15
2019-05-13T01:08:06.296Z,1.30
2019-05-13T01:10:38.259Z,1.10
2019-05-13T01:13:10.260Z,1.15
2019-05-13T01:15:44.416Z,1.00
2019-05-13T01:18:17.708Z,1.62
2019-05-13T01:20:50.055Z,1.72
2019-05-13T01:23:24.046Z,1.35
2019-05-13T01:25:56.682Z,1.20
2019-05-13T01:28:30.674Z,1.70
2019-05-13T01:31:05.001Z,1.62
2019-05-13T01:33:37.334Z,1.82
2019-05-13T01:36:13.370Z,1.85
2019-05-13T01:38:46.060Z,1.47
2019-05-13T01:41:18.458Z,1.87
2019-05-13T01:43:50.721Z,2.37
2019-05-13T01:46:26.335Z,1.63
2019-05-13T01:48:58.748Z,1.95
2019-05-13T01:51:33.467Z,1.72
2019-05-13T01:54:05.419Z,1.67
2019-05-13T01:56:39.460Z,1.50
2019-05-13T01:59:15.311Z,1.85
2019-05-13T02:01:47.778Z,1.90
2019-05-13T02:04:20.291Z,1.70
2019-05-13T02:06:54.483Z,1.90
2019-05-13T02:09:26.830Z,2.52
2019-05-13T02:11:59.288Z,2.70
2019-05-13T02:14:34.047Z,2.10
2019-05-13T02:17:06.767Z,2.30
2019-05-13T02:19:39.286Z,1.87
2019-05-13T02:22:11.256Z,2.33
2019-05-13T02:24:44.653Z,2.20
2019-05-13T02:27:17.287Z,2.37
2019-05-13T02:29:49.749Z,2.15
2019-05-13T02:32:23.438Z,2.33
2019-05-13T02:35:02.748Z,2.12
2019-05-13T02:37:34.375Z,2.27
2019-05-13T02:40:09.009Z,2.65
2019-05-13T02:42:44.306Z,1.93
2019-05-13T02:45:16.921Z,2.30
2019-05-13T02:47:52.000Z,2.10
2019-05-13T02:50:26.643Z,1.98
2019-05-13T02:53:02.380Z,2.30
2019-05-13T02:55:34.740Z,2.30
2019-05-13T02:58:07.290Z,2.17
2019-05-13T03:00:43.821Z,2.25
2019-05-13T03:03:13.620Z,2.17
2019-05-13T03:05:45.991Z,2.17
2019-05-13T03:10:53.074Z,2.08
2019-05-13T03:13:27.289Z,2.10
2019-05-13T03:16:13.202Z,2.12
2019-05-13T03:18:45.498Z,2.60
2019-05-13T03:21:18.503Z,2.50
2019-05-13T03:26:24.404Z,2.25
2019-05-13T03:28:57.287Z,2.10
2019-05-13T03:31:35.231Z,2.30
2019-05-13T03:34:06.426Z,2.60
2019-05-13T03:36:45.767Z,2.83
2019-05-13T03:39:16.889Z,2.40
2019-05-13T03:41:54.289Z,2.60
2019-05-13T03:44:32.472Z,2.80
2019-05-13T03:47:12.252Z,2.80
2019-05-13T03:49:47.421Z,2.42
2019-05-13T03:52:22.487Z,2.50
2019-05-13T03:54:55.572Z,2.45
2019-05-13T03:57:29.038Z,3.75
2019-05-13T04:00:03.577Z,2.54
2019-05-13T04:02:36.014Z,3.27
2019-05-13T04:05:08.762Z,2.80
2019-05-13T04:07:43.426Z,2.70
2019-05-13T04:10:16.035Z,2.40
2019-05-13T04:12:48.540Z,2.40
2019-05-13T04:15:23.857Z,2.33
2019-05-13T04:18:02.685Z,1.90
2019-05-13T04:20:34.891Z,2.80
2019-05-13T04:23:07.310Z,2.55
2019-05-13T04:25:44.500Z,2.58
2019-05-13T04:28:14.547Z,3.17
2019-05-13T04:30:48.614Z,3.05
2019-05-13T04:33:23.011Z,3.12
2019-05-13T04:35:55.596Z,3.00
2019-05-13T04:38:28.288Z,3.47
2019-05-13T04:41:03.465Z,2.72
2019-05-13T04:43:35.074Z,3.35
2019-05-13T04:46:07.584Z,2.72
2019-05-13T04:48:44.261Z,3.42
2019-05-13T04:51:16.298Z,3.40
2019-05-13T04:53:53.689Z,3.30
2019-05-13T04:56:23.347Z,3.45
2019-05-13T04:58:55.735Z,3.33
2019-05-13T05:01:55.395Z,3.10
2019-05-13T05:04:35.173Z,3.30
2019-05-13T05:07:25.660Z,3.70
2019-05-13T05:14:02.503Z,3.85
2019-05-13T05:17:06.658Z,3.10
2019-05-13T05:23:21.404Z,4.24
2019-05-13T05:26:47.383Z,3.20
2019-05-13T05:30:17.024Z,3.42
2019-05-13T05:33:42.807Z,3.20
2019-05-13T05:36:42.316Z,3.30
2019-05-13T05:39:25.712Z,3.62
2019-05-13T05:42:02.210Z,3.70
2019-05-13T05:47:06.694Z,3.47
2019-05-13T05:49:43.480Z,3.30
2019-05-13T05:52:17.925Z,2.70
2019-05-13T05:54:54.571Z,2.60
2019-05-13T05:57:31.663Z,2.00
2019-05-13T06:00:11.519Z,1.60
2019-05-13T06:02:47.884Z,1.50
2019-05-13T06:05:21.395Z,1.75
2019-05-13T06:07:54.067Z,1.42
2019-05-13T06:10:26.750Z,1.45
2019-05-13T06:13:01.836Z,1.30
2019-05-13T06:15:37.365Z,1.55
2019-05-13T06:20:13.237Z,1.17
2019-05-13T06:22:44.719Z,1.47
2019-05-13T06:25:17.314Z,1.37
2019-05-13T06:27:51.518Z,1.35
2019-05-13T06:30:24.291Z,1.47
2019-05-13T06:32:56.712Z,1.37
2019-05-13T06:35:29.380Z,1.45
2019-05-13T06:38:01.764Z,1.30
2019-05-13T06:40:34.301Z,1.20
2019-05-13T06:43:06.753Z,1.32
2019-05-13T06:45:39.298Z,1.55
2019-05-13T06:48:11.910Z,1.45
2019-05-13T06:50:47.386Z,1.22
2019-05-13T06:53:21.773Z,1.72
2019-05-13T06:55:54.051Z,1.55
2019-05-13T06:58:26.438Z,1.22
2019-05-13T07:00:59.058Z,1.30
2019-05-13T07:03:32.333Z,1.45
2019-05-13T07:06:05.041Z,1.40
2019-05-13T07:08:37.838Z,1.90
2019-05-13T07:11:21.453Z,1.25
2019-05-13T07:13:44.856Z,1.30
2019-05-13T07:18:52.087Z,1.40
2019-05-13T07:23:58.920Z,1.20
2019-05-13T07:26:31.680Z,1.42
2019-05-13T07:29:04.913Z,1.30
2019-05-13T07:31:38.290Z,1.32
2019-05-13T07:34:11.634Z,1.62
2019-05-13T07:36:47.580Z,1.22
2019-05-13T07:39:22.306Z,1.82
2019-05-13T07:41:56.281Z,1.80
2019-05-13T07:44:32.164Z,1.30
2019-05-13T07:47:06.368Z,1.32
2019-05-13T07:49:39.169Z,1.62
2019-05-13T07:52:22.542Z,1.40
2019-05-13T07:54:54.330Z,1.20
2019-05-13T07:57:26.754Z,1.22
2019-05-13T08:00:02.128Z,1.35
2019-05-13T08:02:38.294Z,1.07
2019-05-13T08:05:16.507Z,1.10
2019-05-13T08:07:51.522Z,1.27
2019-05-13T08:10:26.765Z,1.00
2019-05-13T08:13:02.474Z,1.30
2019-05-13T08:15:36.649Z,1.40
2019-05-13T08:18:12.554Z,1.40
2019-05-13T08:20:52.495Z,1.75
2019-05-13T08:23:26.047Z,1.30
2019-05-13T08:26:03.051Z,1.30
2019-05-13T08:28:53.981Z,1.48
2019-05-13T08:31:23.863Z,1.20
2019-05-13T08:34:02.618Z,1.20
2019-05-13T08:39:12.786Z,1.55
2019-05-13T08:44:17.607Z,1.53
2019-05-13T08:46:51.864Z,1.20
2019-05-13T08:49:25.042Z,1.10
2019-05-13T08:51:57.760Z,1.52
2019-05-13T08:54:33.134Z,1.47
2019-05-13T08:57:06.050Z,1.16
2019-05-13T08:59:38.846Z,1.07
2019-05-13T09:02:11.617Z,1.27
2019-05-13T09:04:45.766Z,1.07
2019-05-13T09:07:21.858Z,1.53
2019-05-13T09:09:52.770Z,1.32
2019-05-13T09:12:32.343Z,1.80
2019-05-13T09:15:03.363Z,1.20
2019-05-13T09:17:35.365Z,1.10
2019-05-13T09:20:11.499Z,1.40
2019-05-13T09:22:44.713Z,1.57
2019-05-13T09:25:17.476Z,1.02
2019-05-13T09:27:51.327Z,1.40
2019-05-13T09:30:27.248Z,1.30
2019-05-13T09:32:58.666Z,1.25
2019-05-13T09:35:33.306Z,1.15
2019-05-13T09:38:06.287Z,1.42
2019-05-13T09:40:38.851Z,1.35
2019-05-13T09:43:11.757Z,1.30
2019-05-13T09:45:52.309Z,1.00
2019-05-13T09:48:25.007Z,1.45
2019-05-13T09:50:57.850Z,1.27
2019-05-13T09:54:11.687Z,1.55
2019-05-13T09:56:44.713Z,1.22
2019-05-13T09:59:21.965Z,1.10
2019-05-13T10:01:54.083Z,1.15
2019-05-13T10:04:27.549Z,1.15
2019-05-13T10:07:02.743Z,0.95
2019-05-13T10:09:38.684Z,1.30
2019-05-13T10:12:12.477Z,1.82
2019-05-13T10:14:45.547Z,1.20
2019-05-13T10:17:18.281Z,1.37
2019-05-13T10:19:52.008Z,1.30
2019-05-13T10:25:06.754Z,1.15
2019-05-13T10:27:41.847Z,1.10
2019-05-13T10:30:15.463Z,1.00
2019-05-13T10:32:48.297Z,1.40
2019-05-13T10:37:55.759Z,1.55
2019-05-13T10:40:28.474Z,1.37
2019-05-13T10:43:01.897Z,1.32
2019-05-13T10:45:37.965Z,1.20
2019-05-13T10:48:10.388Z,1.30
2019-05-13T10:53:16.621Z,1.25
2019-05-13T10:55:52.176Z,0.90
2019-05-13T11:00:57.714Z,1.00
2019-05-13T11:03:32.954Z,1.30
2019-05-13T11:06:06.308Z,1.20
2019-05-13T11:08:41.984Z,1.20
2019-05-13T11:11:13.585Z,1.35
2019-05-13T11:13:54.913Z,1.37
2019-05-13T11:16:22.589Z,1.67
2019-05-13T11:18:55.600Z,1.40
2019-05-13T11:21:31.622Z,1.27
2019-05-13T11:24:03.858Z,1.25
2019-05-13T11:26:36.765Z,1.30
2019-05-13T11:29:12.131Z,1.00
2019-05-13T11:31:44.891Z,1.50
2019-05-13T11:34:17.447Z,1.00
2019-05-13T11:36:53.217Z,1.40
2019-05-13T11:39:24.852Z,1.25
2019-05-13T11:41:57.348Z,1.22
2019-05-13T11:44:32.340Z,1.92
2019-05-13T11:47:05.047Z,1.95
2019-05-13T11:49:37.542Z,1.80
2019-05-13T11:52:11.661Z,1.37
2019-05-13T11:54:44.479Z,1.07
2019-05-13T11:57:16.803Z,1.95
2019-05-13T11:59:52.355Z,1.05
2019-05-13T12:02:23.545Z,1.83
2019-05-13T12:04:56.297Z,1.20
2019-05-13T12:07:28.777Z,1.15
2019-05-13T12:10:02.697Z,1.00
2019-05-13T12:12:35.323Z,1.02
2019-05-13T12:15:33.489Z,0.95
2019-05-13T12:17:56.469Z,1.27
2019-05-13T12:20:32.817Z,1.00
2019-05-13T12:23:04.825Z,1.22
2019-05-13T12:25:37.325Z,1.17
2019-05-13T12:28:11.423Z,1.00
2019-05-13T12:30:44.033Z,1.12
2019-05-13T12:33:16.532Z,1.10
2019-05-13T12:35:52.578Z,1.17
2019-05-13T12:38:23.300Z,0.95
2019-05-13T12:40:55.693Z,1.00
2019-05-13T12:43:28.288Z,1.35
2019-05-13T12:46:02.270Z,1.30
2019-05-13T12:48:35.398Z,1.12
2019-05-13T12:51:07.862Z,1.22
2019-05-13T12:53:43.521Z,1.25
2019-05-13T12:56:14.446Z,1.22
2019-05-13T12:58:46.713Z,1.35
2019-05-13T13:01:19.292Z,1.30
2019-05-13T13:03:51.758Z,1.40
2019-05-13T13:08:57.424Z,2.35
2019-05-13T13:14:05.720Z,1.40
2019-05-13T13:19:14.024Z,1.10
2019-05-13T13:21:44.269Z,1.20
2019-05-13T13:24:16.712Z,1.10
2019-05-13T13:26:52.563Z,1.02
2019-05-13T13:34:33.444Z,0.90
2019-05-13T13:37:05.032Z,0.90
2019-05-13T13:39:37.611Z,0.88
2019-05-13T13:42:12.881Z,0.98
2019-05-13T13:44:44.637Z,1.20
2019-05-13T13:47:17.383Z,0.80
2019-05-13T13:49:53.274Z,1.10
2019-05-13T13:52:26.123Z,0.90
2019-05-13T13:55:03.452Z,0.93
2019-05-13T13:57:32.700Z,0.85
2019-05-13T14:00:26.342Z,0.95
2019-05-13T14:02:43.093Z,1.17
2019-05-13T14:05:16.051Z,0.90
2019-05-13T14:06:58.379Z,0.90
2019-05-13T14:07:48.373Z,1.00
2019-05-13T14:10:21.993Z,0.90
2019-05-13T14:12:54.711Z,1.00
2019-05-13T14:15:30.867Z,0.95
2019-05-13T14:18:02.300Z,1.06
2019-05-13T14:20:34.698Z,0.88
2019-05-13T14:23:07.410Z,1.04
2019-05-13T14:25:42.043Z,0.95
2019-05-13T14:28:17.673Z,1.07
2019-05-13T14:30:51.431Z,1.00
2019-05-13T14:33:24.295Z,1.10
2019-05-13T14:35:56.583Z,1.12
2019-05-13T14:38:28.970Z,0.90
2019-05-13T14:41:03.493Z,0.95
2019-05-13T14:43:36.286Z,1.10
2019-05-13T14:46:08.742Z,1.05
2019-05-13T14:48:43.347Z,0.82
2019-05-13T14:51:15.383Z,1.10
2019-05-13T14:53:47.689Z,0.93
2019-05-13T14:56:22.125Z,1.30
2019-05-13T14:58:54.421Z,1.40
2019-05-13T15:01:26.789Z,1.37
2019-05-13T15:03:59.359Z,1.50
2019-05-13T15:06:32.893Z,1.17
2019-05-13T15:09:07.379Z,1.07
2019-05-13T15:11:41.914Z,1.10
2019-05-13T15:14:14.296Z,1.30
2019-05-13T15:17:00.551Z,1.00
2019-05-13T15:19:22.337Z,1.07
2019-05-13T15:24:28.016Z,0.98
2019-05-13T15:27:00.656Z,1.20
2019-05-13T15:29:34.304Z,1.60
2019-05-13T15:32:08.013Z,0.86
2019-05-13T15:34:45.809Z,0.75
2019-05-13T15:37:18.358Z,0.83
2019-05-13T15:39:51.853Z,1.07
2019-05-13T15:42:24.744Z,1.10
2019-05-13T15:44:57.299Z,0.87
2019-05-13T15:47:30.320Z,1.12
2019-05-13T15:50:03.344Z,0.80
2019-05-13T15:52:36.008Z,0.80
2019-05-13T15:55:11.970Z,1.10
2019-05-13T15:57:44.333Z,1.00
2019-05-13T16:00:17.298Z,1.00
2019-05-13T16:02:52.072Z,1.07
2019-05-13T16:05:23.140Z,1.40
2019-05-13T16:07:55.707Z,1.00
2019-05-13T16:10:28.312Z,1.12
2019-05-13T16:13:02.328Z,1.37
2019-05-13T16:15:36.295Z,1.30
2019-05-13T16:18:08.595Z,1.10
2019-05-13T16:20:44.435Z,0.90
2019-05-13T16:23:15.362Z,0.95
2019-05-13T16:25:48.036Z,1.10
2019-05-13T16:28:20.384Z,1.20
2019-05-13T16:30:52.758Z,1.10
2019-05-13T16:33:25.293Z,1.15
2019-05-13T16:35:58.530Z,1.30
2019-05-13T16:38:33.019Z,1.52
2019-05-13T16:41:05.767Z,1.27
2019-05-13T16:43:38.473Z,1.20
2019-05-13T16:46:12.094Z,1.62
2019-05-13T16:48:46.027Z,1.15
2019-05-13T16:51:21.411Z,1.57
2019-05-13T16:53:52.795Z,1.42
2019-05-13T16:56:30.409Z,1.85
2019-05-13T17:01:38.507Z,1.47
2019-05-13T17:04:12.613Z,1.30
2019-05-13T17:06:45.347Z,1.80
2019-05-13T17:09:18.028Z,1.45
2019-05-13T17:11:51.942Z,1.60
2019-05-13T17:14:24.685Z,1.60
2019-05-13T17:16:57.323Z,1.60
2019-05-13T17:19:31.800Z,1.40
2019-05-13T17:22:04.515Z,1.07
2019-05-13T17:24:38.349Z,1.62
2019-05-13T17:30:14.071Z,1.30
2019-05-13T17:32:48.368Z,1.60
2019-05-13T17:35:22.564Z,1.62
2019-05-13T17:37:55.424Z,1.42
2019-05-13T17:40:32.067Z,1.22
2019-05-13T17:43:04.612Z,2.15
2019-05-13T17:45:37.151Z,1.20
2019-05-13T17:48:25.437Z,1.40
2019-05-13T17:50:44.481Z,1.57
2019-05-13T17:53:32.703Z,1.65
2019-05-13T17:56:13.482Z,1.07
2019-05-13T17:59:53.537Z,1.22
2019-05-13T18:02:31.271Z,1.17
2019-05-13T18:05:17.872Z,1.35
2019-05-13T18:07:53.510Z,1.92
2019-05-13T18:10:41.961Z,1.70
2019-05-13T18:13:41.420Z,1.42
2019-05-13T18:16:14.506Z,1.37
2019-05-13T18:18:47.778Z,1.80
2019-05-13T18:21:20.665Z,1.43
2019-05-13T18:23:53.294Z,1.25
2019-05-13T18:26:26.093Z,1.17
2019-05-13T18:28:58.872Z,1.30
2019-05-13T18:31:31.594Z,1.77
2019-05-13T18:34:04.891Z,1.66
2019-05-13T18:36:37.499Z,1.40
2019-05-13T18:41:45.299Z,1.42
2019-05-13T18:44:17.700Z,1.55
2019-05-13T18:46:52.412Z,1.10
2019-05-13T18:51:57.389Z,0.98
2019-05-13T18:54:31.649Z,1.30
2019-05-13T18:57:05.723Z,1.15
2019-05-13T18:59:42.076Z,1.60
2019-05-13T19:03:24.856Z,1.40
2019-05-13T19:05:57.501Z,1.30
2019-05-13T19:08:32.094Z,1.00
2019-05-13T19:11:05.439Z,2.58
2019-05-13T19:13:41.711Z,2.00
2019-05-13T19:16:14.355Z,1.65
2019-05-13T19:18:47.399Z,1.72
2019-05-13T19:21:21.909Z,1.40
2019-05-13T19:23:57.477Z,1.85
2019-05-13T19:26:29.910Z,2.02
2019-05-13T19:29:03.929Z,1.70
2019-05-13T19:31:36.692Z,1.82
2019-05-13T19:34:09.317Z,1.85
2019-05-13T19:36:42.009Z,1.72
2019-05-13T19:39:14.698Z,1.77
2019-05-13T19:41:49.004Z,2.52
2019-05-13T19:44:22.037Z,2.50
2019-05-13T19:46:55.053Z,2.37
2019-05-13T19:49:33.014Z,2.00
2019-05-13T19:52:03.322Z,1.52
2019-05-13T19:54:35.735Z,2.05
2019-05-13T19:57:08.627Z,1.60
2019-05-13T19:59:42.674Z,1.90
2019-05-13T20:02:15.521Z,1.53
2019-05-13T20:04:48.311Z,1.77
2019-05-13T20:07:22.455Z,1.57
2019-05-13T20:09:55.306Z,1.60
2019-05-13T20:12:27.859Z,1.30
2019-05-13T20:15:01.417Z,1.17
2019-05-13T20:17:36.149Z,1.30
2019-05-13T20:20:12.417Z,1.57
2019-05-13T20:22:44.767Z,1.80
2019-05-13T20:25:17.422Z,1.32
2019-05-13T20:27:51.523Z,1.63
2019-05-13T20:32:55.717Z,1.55
2019-05-13T20:35:28.299Z,1.50
2019-05-13T20:38:02.154Z,1.30
2019-05-13T20:40:36.318Z,1.60
2019-05-13T20:44:37.475Z,1.62
2019-05-13T20:47:10.306Z,2.60
2019-05-13T20:49:43.008Z,2.30
2019-05-13T20:52:16.273Z,1.15
2019-05-13T20:54:51.166Z,1.50
2019-05-13T20:57:32.316Z,1.13
2019-05-13T21:00:07.569Z,1.18
2019-05-13T21:02:41.995Z,1.30
2019-05-13T21:05:21.720Z,1.30
2019-05-13T21:12:57.699Z,1.10
2019-05-13T21:15:31.690Z,1.00
2019-05-13T21:18:06.684Z,1.25
2019-05-13T21:21:03.416Z,1.20
2019-05-13T21:23:36.667Z,1.40
2019-05-13T21:26:12.977Z,1.30
2019-05-13T21:28:43.542Z,1.45
2019-05-13T21:31:16.069Z,1.25
2019-05-13T21:33:48.617Z,1.20
2019-05-13T21:36:21.602Z,1.12
2019-05-13T21:38:54.478Z,1.30
2019-05-13T21:41:27.346Z,1.50
2019-05-13T21:44:01.268Z,1.35
2019-05-13T21:46:34.397Z,1.12
2019-05-13T21:49:06.913Z,1.30
2019-05-13T21:51:42.337Z,1.42
2019-05-13T21:54:15.810Z,1.17
2019-05-13T21:56:51.455Z,1.47
2019-05-13T21:59:23.462Z,1.20
2019-05-13T22:01:56.003Z,1.47
2019-05-13T22:04:31.562Z,1.35
2019-05-13T22:07:04.391Z,1.30
2019-05-13T22:09:36.822Z,1.77
2019-05-13T22:12:09.951Z,1.80
2019-05-13T22:14:43.621Z,1.30
2019-05-13T22:17:16.525Z,1.20
2019-05-13T22:19:51.122Z,1.40
2019-05-13T22:22:23.321Z,1.50
2019-05-13T22:24:56.314Z,1.00
2019-05-13T22:27:28.777Z,2.22
2019-05-13T22:30:01.456Z,1.50
2019-05-13T22:32:34.064Z,1.10
2019-05-13T22:35:07.091Z,1.40
2019-05-13T22:37:39.246Z,1.02
2019-05-13T22:40:13.441Z,1.56
2019-05-13T22:42:47.658Z,1.20
2019-05-13T22:45:22.091Z,1.20
2019-05-13T22:47:54.677Z,1.53
2019-05-13T22:50:28.313Z,2.15
2019-05-13T22:53:01.416Z,1.78
2019-05-13T22:55:35.472Z,1.95
2019-05-13T22:58:08.860Z,1.50
2019-05-13T23:00:43.578Z,1.27
2019-05-13T23:03:19.290Z,1.60
2019-05-13T23:05:52.220Z,1.57
2019-05-13T23:08:24.883Z,1.90
2019-05-13T23:10:57.413Z,1.90
2019-05-13T23:13:31.301Z,1.70
2019-05-13T23:16:04.291Z,1.80
2019-05-13T23:18:37.312Z,1.48
2019-05-13T23:21:11.469Z,1.40
2019-05-13T23:23:44.062Z,1.57
2019-05-13T23:26:16.649Z,1.47
2019-05-13T23:28:49.309Z,1.65
2019-05-13T23:31:21.814Z,1.65
2019-05-13T23:33:54.688Z,1.50
2019-05-13T23:36:27.294Z,1.60
2019-05-13T23:39:01.047Z,2.12
2019-05-13T23:41:35.554Z,1.70
2019-05-13T23:44:23.298Z,1.60
2019-05-13T23:46:45.358Z,1.98
2019-05-13T23:49:21.076Z,1.65
2019-05-13T23:51:53.770Z,1.90
2019-05-13T23:54:56.031Z,1.55
2019-05-13T23:57:07.443Z,1.82
2019-05-13T23:59:42.038Z,1.57
